Time;durP1;ratioP1;P1;durP2;ratioP2;P2;SDS_P1;SDS_P2;PMS_P1;PMS_P2;Temp;Humidity;BMP_temperature;BMP_pressure;BME280_temperature;BME280_humidity;BME280_pressure;Samples;Min_cycle;Max_cycle;Signal;HPM_P1;HPM_P2
2021/06/25 00:02:00;;;;;;;12.73;11.60;;;;;;;16.78;77.28;100657.00;5105227;28;20627;-73
2021/06/25 00:04:26;;;;;;;12.83;11.83;;;;;;;16.86;77.54;100641.75;5105690;28;20211;-75
2021/06/25 00:06:53;;;;;;;12.10;11.20;;;;;;;16.91;78.10;100611.69;5104962;28;20228;-75
2021/06/25 00:09:19;;;;;;;9.80;9.07;;;;;;;16.94;78.68;100590.50;5105033;28;20206;-75
2021/06/25 00:11:46;;;;;;;9.70;9.10;;;;;;;16.99;78.20;100604.34;5105542;28;20597;-74
2021/06/25 00:14:12;;;;;;;10.20;9.40;;;;;;;16.98;77.96;100621.06;5104703;28;20631;-74
2021/06/25 00:16:38;;;;;;;10.67;9.67;;;;;;;17.03;77.71;100627.03;5104851;28;20256;-75
2021/06/25 00:19:06;;;;;;;11.07;10.33;;;;;;;17.02;77.52;100641.97;5104985;28;20248;-74
2021/06/25 00:21:33;;;;;;;11.20;10.37;;;;;;;17.04;77.37;100645.41;5104510;28;20263;-74
2021/06/25 00:23:59;;;;;;;12.40;11.50;;;;;;;17.03;75.96;100717.56;5103972;28;20212;-74
2021/06/25 00:26:25;;;;;;;11.03;10.23;;;;;;;17.06;76.76;100687.53;5104974;28;20224;-74
2021/06/25 00:28:51;;;;;;;9.40;8.80;;;;;;;17.11;76.88;100679.47;5104210;28;20221;-74
2021/06/25 00:31:18;;;;;;;9.50;8.80;;;;;;;17.10;77.00;100683.00;5105147;28;20200;-74
2021/06/25 00:33:44;;;;;;;8.50;8.00;;;;;;;17.10;76.62;100696.19;5104813;28;20553;-74
2021/06/25 00:36:12;;;;;;;8.80;8.20;;;;;;;17.10;76.83;100691.75;5104650;28;20223;-74
2021/06/25 00:38:38;;;;;;;8.60;8.00;;;;;;;17.07;77.20;100660.25;5104847;28;20550;-74
2021/06/25 00:41:04;;;;;;;10.70;9.67;;;;;;;17.11;76.47;100690.00;5104553;28;20637;-74
2021/06/25 00:43:31;;;;;;;10.50;9.67;;;;;;;17.07;76.57;100687.47;5104396;28;20202;-74
2021/06/25 00:45:57;;;;;;;11.10;10.20;;;;;;;17.09;76.21;100710.31;5104154;28;20220;-74
2021/06/25 00:48:24;;;;;;;11.60;10.43;;;;;;;17.09;75.78;100726.13;5104397;28;20238;-73
2021/06/25 00:50:50;;;;;;;10.70;10.00;;;;;;;17.11;75.82;100733.06;5104182;28;20284;-73
2021/06/25 00:53:18;;;;;;;11.50;10.50;;;;;;;17.16;75.24;100746.03;5103796;28;20747;-74
2021/06/25 00:55:44;;;;;;;11.67;10.70;;;;;;;17.16;74.81;100769.78;5104578;28;20692;-74
2021/06/25 00:58:12;;;;;;;10.13;9.33;;;;;;;17.15;75.08;100754.91;5103801;28;20200;-74
2021/06/25 01:00:38;;;;;;;9.37;8.60;;;;;;;17.13;75.55;100739.13;5103986;28;20208;-74
2021/06/25 01:03:05;;;;;;;7.13;6.53;;;;;;;17.06;75.74;100717.41;5103220;28;20249;-74
2021/06/25 01:05:33;;;;;;;7.77;7.27;;;;;;;17.09;75.82;100712.94;5104197;27;20228;-74
2021/06/25 01:07:59;;;;;;;7.53;7.03;;;;;;;17.02;76.20;100702.63;5104583;27;20780;-74
2021/06/25 01:10:27;;;;;;;9.63;8.80;;;;;;;16.97;76.01;100709.91;5105015;27;20450;-74
2021/06/25 01:12:54;;;;;;;9.73;9.13;;;;;;;16.93;76.17;100702.19;5104436;27;20213;-74
2021/06/25 01:15:21;;;;;;;10.63;9.73;;;;;;;16.93;76.38;100692.47;5104881;27;20252;-74
2021/06/25 01:17:47;;;;;;;10.67;9.80;;;;;;;16.92;76.90;100663.53;5103918;27;20268;-74
2021/06/25 01:20:16;;;;;;;8.67;8.07;;;;;;;16.96;76.85;100657.22;5104182;27;20252;-74
2021/06/25 01:22:44;;;;;;;10.20;9.50;;;;;;;16.96;76.66;100673.03;5103771;27;20695;-74
2021/06/25 01:25:14;;;;;;;11.47;10.60;;;;;;;16.93;76.59;100674.03;5104783;27;20205;-74
2021/06/25 01:27:41;;;;;;;10.00;9.30;;;;;;;16.89;76.92;100667.16;5104654;27;20234;-74
2021/06/25 01:30:10;;;;;;;10.10;9.40;;;;;;;16.89;77.37;100635.53;5103140;27;20698;-74
2021/06/25 01:32:37;;;;;;;11.60;10.83;;;;;;;16.74;78.02;100610.59;5104260;27;20206;-74
2021/06/25 01:35:05;;;;;;;12.00;11.20;;;;;;;16.68;78.28;100587.16;5103288;28;20480;-74
2021/06/25 01:37:31;;;;;;;13.63;12.40;;;;;;;16.58;79.07;100564.75;5104682;27;20204;-74
2021/06/25 01:39:59;;;;;;;13.53;12.33;;;;;;;16.55;79.47;100551.69;5104503;27;20209;-74
2021/06/25 01:42:25;;;;;;;12.87;12.07;;;;;;;16.53;79.40;100545.63;5103439;27;20214;-74
2021/06/25 01:44:53;;;;;;;12.77;11.97;;;;;;;16.52;79.47;100550.03;5103484;27;20583;-74
2021/06/25 01:47:21;;;;;;;13.57;12.60;;;;;;;16.53;79.47;100551.75;5104170;27;20224;-74
2021/06/25 01:49:47;;;;;;;13.50;12.57;;;;;;;16.54;80.13;100528.91;5104086;27;20205;-74
2021/06/25 01:52:17;;;;;;;13.07;12.20;;;;;;;16.56;79.91;100535.81;5103912;27;20254;-73
2021/06/25 01:54:44;;;;;;;12.80;11.80;;;;;;;16.52;80.30;100526.31;5103866;27;20292;-74
2021/06/25 01:57:12;;;;;;;11.73;10.93;;;;;;;16.42;80.60;100509.19;5103264;27;20229;-74
2021/06/25 01:59:38;;;;;;;10.70;10.00;;;;;;;16.49;80.03;100539.63;5104148;27;20198;-74
2021/06/25 02:02:05;;;;;;;10.80;10.00;;;;;;;16.47;79.80;100542.34;5103982;27;20605;-74
2021/06/25 02:04:31;;;;;;;11.00;10.30;;;;;;;16.48;79.87;100551.09;5103752;27;20265;-74
2021/06/25 02:06:58;;;;;;;11.13;10.33;;;;;;;16.46;79.76;100548.50;5103458;28;20632;-74
2021/06/25 02:09:24;;;;;;;11.67;10.90;;;;;;;16.41;80.09;100528.53;5102735;28;20585;-74
2021/06/25 02:11:51;;;;;;;11.40;10.60;;;;;;;16.36;80.23;100523.47;5102199;28;20214;-75
2021/06/25 02:14:20;;;;;;;13.27;12.30;;;;;;;16.32;80.14;100542.13;5102396;28;20615;-74
2021/06/25 02:16:46;;;;;;;12.47;11.67;;;;;;;15.96;81.41;100495.28;5103267;28;20278;-74
2021/06/25 02:19:13;;;;;;;15.00;13.80;;;;;;;15.58;82.78;100437.09;5102481;28;20745;-74
2021/06/25 02:21:39;;;;;;;16.17;14.87;;;;;;;15.32;84.19;100393.41;5102659;28;20253;-73
2021/06/25 02:24:07;;;;;;;14.27;13.17;;;;;;;15.41;84.15;100378.13;5102706;28;20203;-75
2021/06/25 02:26:33;;;;;;;13.17;12.23;;;;;;;15.60;83.80;100401.94;5102124;28;20663;-74
2021/06/25 02:29:00;;;;;;;13.50;12.23;;;;;;;15.72;82.90;100433.91;5102204;28;20645;-74
2021/06/25 02:31:27;;;;;;;13.10;12.10;;;;;;;15.82;82.76;100446.69;5103131;28;20207;-75
2021/06/25 02:33:54;;;;;;;13.20;12.30;;;;;;;15.86;82.73;100443.00;5102452;28;20256;-74
2021/06/25 02:36:20;;;;;;;12.00;11.20;;;;;;;15.93;81.87;100475.19;5102575;28;20228;-74
2021/06/25 02:38:46;;;;;;;12.63;11.70;;;;;;;16.02;81.74;100479.25;5102460;28;20252;-74
2021/06/25 02:41:13;;;;;;;11.90;11.00;;;;;;;16.06;81.55;100494.84;5102387;28;20616;-74
2021/06/25 02:43:39;;;;;;;13.63;12.63;;;;;;;15.97;81.56;100486.47;5102258;28;20207;-74
2021/06/25 02:46:05;;;;;;;12.50;11.50;;;;;;;15.96;82.09;100463.69;5104194;28;20590;-74
2021/06/25 02:48:33;;;;;;;13.70;12.70;;;;;;;15.98;81.74;100457.44;5106602;28;20223;-74
2021/06/25 02:50:59;;;;;;;15.07;13.87;;;;;;;15.91;81.78;100455.97;5106881;28;20202;-74
2021/06/25 02:53:26;;;;;;;14.87;13.63;;;;;;;15.93;81.90;100440.97;5106249;28;20203;-74
2021/06/25 02:55:52;;;;;;;13.03;12.23;;;;;;;15.92;81.93;100446.31;5108612;28;20227;-74
2021/06/25 02:58:20;;;;;;;17.07;15.63;;;;;;;15.72;82.15;100431.28;5108698;28;20206;-74
2021/06/25 03:00:46;;;;;;;14.30;13.20;;;;;;;15.71;82.46;100422.53;5110711;28;20693;-74
2021/06/25 03:03:13;;;;;;;16.90;15.30;;;;;;;15.42;83.32;100390.38;5106668;28;20200;-74
2021/06/25 03:05:41;;;;;;;16.70;15.40;;;;;;;15.39;83.94;100369.44;5106034;28;20291;-73
2021/06/25 03:08:07;;;;;;;16.87;15.57;;;;;;;15.20;84.97;100336.88;5106053;28;20284;-73
2021/06/25 03:10:33;;;;;;;18.80;16.90;;;;;;;14.96;85.88;100294.88;5106120;28;20263;-74
2021/06/25 03:13:00;;;;;;;17.83;16.33;;;;;;;14.87;86.42;100280.34;5105750;28;20203;-74
2021/06/25 03:15:27;;;;;;;18.10;16.50;;;;;;;14.92;86.32;100272.25;5105870;28;20741;-74
2021/06/25 03:17:53;;;;;;;15.63;14.33;;;;;;;15.06;85.86;100292.75;5106040;28;20696;-74
2021/06/25 03:20:20;;;;;;;15.23;14.03;;;;;;;15.16;85.67;100290.59;5106185;28;20210;-75
2021/06/25 03:22:47;;;;;;;14.50;13.30;;;;;;;15.30;85.45;100306.66;5105540;28;20461;-73
2021/06/25 03:25:14;;;;;;;14.83;13.63;;;;;;;15.44;84.84;100329.78;5105268;28;20200;-74
2021/06/25 03:27:41;;;;;;;13.33;12.33;;;;;;;15.58;84.58;100347.63;5106054;28;20245;-74
2021/06/25 03:30:09;;;;;;;13.13;12.13;;;;;;;15.66;83.88;100371.88;5105462;28;20239;-74
2021/06/25 03:32:36;;;;;;;13.10;12.03;;;;;;;15.74;83.44;100382.97;5105497;28;20635;-74
2021/06/25 03:35:04;;;;;;;12.27;11.37;;;;;;;15.82;83.20;100401.94;5105443;28;20210;-74
2021/06/25 03:37:31;;;;;;;13.27;12.33;;;;;;;15.85;82.53;100422.00;5106546;28;20277;-75
2021/06/25 03:39:59;;;;;;;12.47;11.57;;;;;;;15.89;82.47;100431.47;5106198;27;20205;-74
2021/06/25 03:42:25;;;;;;;12.70;11.80;;;;;;;15.95;82.47;100433.00;5105705;28;20252;-74
2021/06/25 03:44:51;;;;;;;12.50;11.47;;;;;;;16.00;82.38;100421.38;5105346;28;20203;-74
2021/06/25 03:47:18;;;;;;;12.30;11.33;;;;;;;15.99;82.40;100418.78;5105785;28;20224;-73
2021/06/25 03:49:44;;;;;;;12.53;11.63;;;;;;;16.02;82.10;100429.22;5105194;28;20630;-74
2021/06/25 03:52:11;;;;;;;12.47;11.40;;;;;;;16.03;81.79;100438.81;5105276;28;20262;-75
2021/06/25 03:54:37;;;;;;;12.50;11.73;;;;;;;16.03;81.62;100442.28;5105838;28;20205;-74
2021/06/25 03:57:06;;;;;;;13.27;12.23;;;;;;;15.94;81.57;100463.75;5104360;28;20239;-73
2021/06/25 03:59:32;;;;;;;15.23;14.13;;;;;;;15.68;82.88;100409.50;5105317;28;20207;-74
2021/06/25 04:01:58;;;;;;;15.43;14.07;;;;;;;15.43;84.72;100338.59;5105076;28;20277;-74
2021/06/25 04:04:25;;;;;;;17.27;15.97;;;;;;;15.28;85.21;100312.03;5104368;28;20213;-74
2021/06/25 04:06:51;;;;;;;16.57;15.30;;;;;;;15.17;85.92;100280.03;5105280;28;20223;-74
2021/06/25 04:09:18;;;;;;;15.73;14.20;;;;;;;15.14;86.42;100260.91;5105505;28;20232;-74
2021/06/25 04:11:44;;;;;;;15.80;14.20;;;;;;;15.29;86.16;100279.53;5105089;28;20238;-75
2021/06/25 04:14:12;;;;;;;18.27;15.27;;;;;;;15.40;86.05;100276.47;5105107;28;21074;-73
2021/06/25 04:16:38;;;;;;;18.43;16.70;;;;;;;15.26;86.56;100258.63;5105139;28;20224;-74
2021/06/25 04:19:04;;;;;;;16.83;15.27;;;;;;;15.32;86.49;100251.38;5104807;28;20211;-74
2021/06/25 04:21:31;;;;;;;18.50;16.77;;;;;;;15.01;87.79;100226.38;5104803;28;20631;-74
2021/06/25 04:23:57;;;;;;;19.57;16.87;;;;;;;15.14;87.78;100229.34;5104853;28;20258;-74
2021/06/25 04:26:25;;;;;;;16.33;14.63;;;;;;;15.30;87.30;100240.94;5104636;28;20223;-74
2021/06/25 04:28:51;;;;;;;14.90;13.47;;;;;;;15.48;86.55;100278.78;5104741;28;20268;-73
2021/06/25 04:31:19;;;;;;;16.97;15.23;;;;;;;15.61;86.03;100302.78;5105045;28;20207;-74
2021/06/25 04:33:45;;;;;;;16.40;14.70;;;;;;;15.61;85.47;100327.31;5104273;28;20212;-74
2021/06/25 04:36:12;;;;;;;16.90;15.33;;;;;;;15.41;84.43;100398.31;5105055;28;20220;-74
2021/06/25 04:38:38;;;;;;;16.03;14.83;;;;;;;15.32;85.21;100356.59;5104969;28;20209;-74
2021/06/25 04:41:05;;;;;;;15.73;14.63;;;;;;;15.39;85.40;100342.28;5105077;28;20231;-74
2021/06/25 04:43:31;;;;;;;16.23;14.67;;;;;;;15.49;85.51;100339.19;5104092;28;20599;-74
2021/06/25 04:46:00;;;;;;;16.63;15.13;;;;;;;15.61;84.93;100356.25;5103733;28;20713;-74
2021/06/25 04:48:28;;;;;;;15.90;14.60;;;;;;;15.81;84.06;100391.47;5110472;28;20621;-74
2021/06/25 04:50:54;;;;;;;14.60;13.57;;;;;;;15.89;83.23;100426.22;5114695;28;20208;-75
2021/06/25 04:53:21;;;;;;;15.77;14.50;;;;;;;15.73;83.15;100439.16;5112661;28;20293;-75
2021/06/25 04:55:47;;;;;;;15.00;13.87;;;;;;;15.89;82.54;100447.28;5115666;28;20285;-74
2021/06/25 04:58:15;;;;;;;15.33;13.83;;;;;;;16.02;81.86;100466.94;5106193;28;20705;-74
2021/06/25 05:00:43;;;;;;;15.53;14.23;;;;;;;16.04;81.41;100494.06;5104193;28;20208;-74
2021/06/25 05:03:10;;;;;;;15.93;14.73;;;;;;;15.81;81.50;100479.16;5104053;28;20264;-74
2021/06/25 05:05:40;;;;;;;15.63;14.30;;;;;;;15.82;82.68;100422.16;5103358;28;20714;-74
2021/06/25 05:08:07;;;;;;;15.87;14.60;;;;;;;15.87;83.05;100421.00;5103647;28;20235;-74
2021/06/25 05:10:33;;;;;;;14.43;13.23;;;;;;;15.79;82.21;100454.69;5104198;28;20274;-75
2021/06/25 05:13:00;;;;;;;14.70;13.53;;;;;;;15.82;81.79;100490.59;5103325;28;20205;-74
2021/06/25 05:15:26;;;;;;;15.07;13.80;;;;;;;15.72;82.66;100445.31;5104149;28;20231;-74
2021/06/25 05:17:53;;;;;;;14.67;13.63;;;;;;;15.88;82.77;100432.41;5103880;28;20641;-74
2021/06/25 05:20:20;;;;;;;15.20;14.00;;;;;;;15.94;81.82;100473.44;5103659;28;20253;-74
2021/06/25 05:22:48;;;;;;;14.80;13.90;;;;;;;15.94;81.78;100476.91;5103371;28;20199;-74
2021/06/25 05:25:15;;;;;;;14.23;13.23;;;;;;;16.04;82.04;100464.22;5103866;28;20498;-73
2021/06/25 05:27:42;;;;;;;14.47;13.27;;;;;;;16.09;82.39;100449.09;5102985;28;20203;-74
2021/06/25 05:30:10;;;;;;;15.67;14.50;;;;;;;16.06;81.69;100463.25;5103563;28;20223;-74
2021/06/25 05:32:37;;;;;;;16.37;14.90;;;;;;;16.01;82.90;100424.84;5103011;28;20759;-74
2021/06/25 05:35:04;;;;;;;14.93;13.93;;;;;;;16.15;83.13;100417.22;5103383;28;20439;-74
2021/06/25 05:37:31;;;;;;;15.40;13.97;;;;;;;16.19;82.15;100458.31;5103669;28;20207;-74
2021/06/25 05:39:58;;;;;;;15.27;13.87;;;;;;;16.26;81.89;100466.81;5103084;28;20621;-74
2021/06/25 05:42:25;;;;;;;15.10;14.00;;;;;;;16.43;81.41;100498.59;5102825;28;20256;-74
2021/06/25 05:44:52;;;;;;;14.60;13.60;;;;;;;16.60;81.00;100516.31;5103632;28;20675;-75
2021/06/25 05:47:18;;;;;;;15.40;14.00;;;;;;;16.64;80.71;100527.56;5103103;28;20276;-74
2021/06/25 05:49:44;;;;;;;15.23;12.90;;;;;;;16.75;80.51;100540.28;5103377;28;20276;-74
2021/06/25 05:52:11;;;;;;;13.80;12.80;;;;;;;16.88;80.10;100552.91;5102953;28;20485;-74
2021/06/25 05:54:37;;;;;;;13.07;12.17;;;;;;;17.01;79.49;100571.69;5102583;28;20643;-74
2021/06/25 05:57:06;;;;;;;14.20;13.00;;;;;;;17.04;78.42;100624.31;5103236;28;20256;-73
2021/06/25 05:59:33;;;;;;;13.43;12.23;;;;;;;16.98;78.81;100618.44;5102967;28;20277;-75
2021/06/25 06:02:00;;;;;;;13.83;12.83;;;;;;;17.01;78.87;100605.13;5103771;27;20208;-75
2021/06/25 06:04:26;;;;;;;13.87;12.87;;;;;;;16.87;78.59;100622.41;5103426;27;20568;-74
2021/06/25 06:06:53;;;;;;;14.30;13.00;;;;;;;16.97;78.25;100630.78;5103860;27;20225;-74
2021/06/25 06:09:19;;;;;;;13.90;12.97;;;;;;;17.06;77.84;100653.25;5103311;27;20295;-74
2021/06/25 06:11:45;;;;;;;13.87;12.77;;;;;;;17.10;77.18;100683.84;5103565;27;20202;-75
2021/06/25 06:14:13;;;;;;;14.17;13.20;;;;;;;17.21;76.99;100688.69;5102847;28;20673;-73
2021/06/25 06:16:40;;;;;;;14.80;13.67;;;;;;;17.25;76.59;100714.88;5102995;27;20724;-75
2021/06/25 06:19:07;;;;;;;14.10;12.90;;;;;;;17.29;76.20;100726.16;5104000;28;20235;-74
2021/06/25 06:32:34;;;;;;;12.93;12.03;;;;;;;17.44;76.74;100690.31;5103030;27;20588;-75
2021/06/25 06:35:01;;;;;;;14.37;13.37;;;;;;;17.51;76.78;100685.66;5103926;27;20681;-75
2021/06/25 06:37:27;;;;;;;12.23;11.43;;;;;;;17.47;76.89;100682.28;5102780;28;20250;-74
2021/06/25 06:39:54;;;;;;;14.50;13.27;;;;;;;17.47;77.06;100675.22;5102972;28;20202;-75
2021/06/25 06:42:21;;;;;;;14.47;13.37;;;;;;;17.45;77.19;100661.22;5103247;28;20289;-75
2021/06/25 06:44:48;;;;;;;13.70;12.70;;;;;;;17.53;76.54;100695.22;5103977;28;20262;-75
2021/06/25 06:47:15;;;;;;;14.10;13.00;;;;;;;17.60;76.25;100711.63;5103808;28;20236;-73
2021/06/25 06:49:41;;;;;;;14.40;13.33;;;;;;;17.67;75.87;100723.63;5103722;28;20225;-74
2021/06/25 06:52:08;;;;;;;14.00;12.97;;;;;;;17.77;75.52;100742.56;5103675;28;20652;-75
2021/06/25 06:54:34;;;;;;;13.87;12.93;;;;;;;17.87;75.31;100754.47;5103701;28;20236;-74
2021/06/25 06:57:01;;;;;;;13.83;12.83;;;;;;;17.98;74.55;100783.06;5103159;28;20649;-76
2021/06/25 06:59:27;;;;;;;12.53;11.73;;;;;;;18.06;73.81;100820.56;5103037;28;20206;-74
2021/06/25 07:01:55;;;;;;;13.27;12.27;;;;;;;18.20;72.77;100864.88;5103164;27;20491;-74
2021/06/25 07:04:21;;;;;;;12.60;11.67;;;;;;;18.25;72.52;100868.16;5102319;28;20260;-75
2021/06/25 07:06:48;;;;;;;13.43;12.40;;;;;;;18.32;71.20;100921.63;5103303;28;20233;-74
2021/06/25 07:09:14;;;;;;;13.13;12.13;;;;;;;18.33;70.83;100941.84;5103056;28;20680;-74
2021/06/25 07:11:40;;;;;;;13.47;12.53;;;;;;;18.35;71.21;100924.13;5102651;28;20566;-75
2021/06/25 07:14:07;;;;;;;12.60;11.80;;;;;;;18.36;71.72;100892.34;5103275;28;20260;-74
2021/06/25 07:16:33;;;;;;;12.73;11.83;;;;;;;18.40;70.76;100927.44;5102636;28;20230;-74
2021/06/25 07:19:01;;;;;;;14.20;13.20;;;;;;;18.38;70.85;100937.22;5102676;28;20210;-75
2021/06/25 07:21:27;;;;;;;14.47;13.27;;;;;;;18.37;71.38;100906.41;5103334;28;20633;-74
2021/06/25 07:23:53;;;;;;;13.83;12.63;;;;;;;18.36;71.59;100897.63;5102847;28;20271;-75
2021/06/25 07:26:20;;;;;;;14.23;13.23;;;;;;;18.37;71.58;100895.84;5102064;28;20263;-74
2021/06/25 07:28:46;;;;;;;13.50;12.50;;;;;;;18.39;70.93;100916.00;5103380;28;20621;-75
2021/06/25 07:31:13;;;;;;;14.67;13.50;;;;;;;18.39;70.70;100923.06;5103273;28;20275;-73
2021/06/25 07:33:40;;;;;;;14.30;13.17;;;;;;;18.33;71.59;100896.91;5105345;27;20356;-73
2021/06/25 07:36:08;;;;;;;13.57;12.60;;;;;;;18.34;73.00;100817.56;5106938;27;20225;-72
2021/06/25 07:38:34;;;;;;;13.50;12.60;;;;;;;18.38;73.57;100789.19;5106189;27;20206;-72
2021/06/25 07:41:01;;;;;;;13.87;12.87;;;;;;;18.53;73.52;100800.84;5106221;27;20666;-73
2021/06/25 07:43:27;;;;;;;13.90;12.77;;;;;;;18.66;72.75;100818.69;5106736;27;20262;-72
2021/06/25 07:45:53;;;;;;;13.87;12.97;;;;;;;18.77;72.38;100843.78;5106415;27;20455;-74
2021/06/25 07:48:20;;;;;;;13.87;12.67;;;;;;;18.87;72.38;100865.41;5106442;27;20741;-71
2021/06/25 07:50:46;;;;;;;15.07;14.10;;;;;;;18.87;72.45;100849.53;5106987;27;20227;-72
2021/06/25 07:53:14;;;;;;;18.60;17.23;;;;;;;18.83;71.76;100876.16;5106215;27;20434;-71
2021/06/25 07:55:43;;;;;;;13.87;12.87;;;;;;;18.79;73.03;100805.81;5106036;27;20229;-72
2021/06/25 07:58:12;;;;;;;16.47;15.37;;;;;;;18.85;72.04;100866.34;5105792;27;20802;-71
2021/06/25 08:00:39;;;;;;;17.10;15.70;;;;;;;18.89;71.34;100900.59;5106546;27;20246;-72
2021/06/25 08:03:06;;;;;;;15.97;14.83;;;;;;;18.90;71.27;100904.97;5106570;27;20214;-75
2021/06/25 08:05:32;;;;;;;16.37;15.17;;;;;;;18.90;70.71;100916.41;5106223;27;20236;-74
2021/06/25 08:07:58;;;;;;;15.07;14.17;;;;;;;18.84;71.50;100884.94;5106264;27;21036;-73
2021/06/25 08:10:26;;;;;;;15.20;14.10;;;;;;;18.88;71.55;100877.72;5105658;27;20789;-74
2021/06/25 08:13:08;;;;;;;16.53;15.40;;;;;;;18.91;70.99;100893.44;5109602;27;20210;-74
2021/06/25 08:15:34;;;;;;;14.50;13.60;;;;;;;18.82;72.56;100850.63;5106505;27;20313;-73
2021/06/25 08:18:01;;;;;;;15.27;14.27;;;;;;;18.76;72.85;100819.13;5106261;27;20218;-74
2021/06/25 08:20:27;;;;;;;16.37;15.17;;;;;;;18.85;72.56;100807.31;5108890;27;20210;-74
2021/06/25 08:22:54;;;;;;;16.77;15.10;;;;;;;18.93;72.06;100846.59;5108550;27;20209;-76
2021/06/25 08:25:20;;;;;;;16.07;14.70;;;;;;;19.07;72.15;100835.38;5109088;27;20230;-75
2021/06/25 08:27:48;;;;;;;17.30;16.17;;;;;;;19.28;71.81;100829.03;5106201;27;20251;-74
2021/06/25 08:30:15;;;;;;;18.97;17.63;;;;;;;19.46;70.61;100909.34;5105608;27;20223;-73
2021/06/25 08:32:43;;;;;;;17.53;16.43;;;;;;;19.45;70.32;100937.63;5106075;27;20206;-74
2021/06/25 08:35:10;;;;;;;19.27;17.73;;;;;;;18.91;67.97;101002.78;5105367;27;20234;-73
2021/06/25 08:37:37;;;;;;;17.50;16.03;;;;;;;19.11;70.24;100933.06;5106508;27;20229;-74
2021/06/25 08:40:06;;;;;;;15.53;14.40;;;;;;;19.41;70.29;100909.56;5106196;27;20260;-73
2021/06/25 08:42:33;;;;;;;17.50;16.40;;;;;;;19.65;69.65;100912.81;5103851;27;20685;-74
2021/06/25 08:45:01;;;;;;;16.00;14.87;;;;;;;19.80;69.13;100952.75;5105663;27;20199;-74
2021/06/25 08:47:28;;;;;;;17.53;16.17;;;;;;;19.92;68.91;100941.56;5105603;27;20215;-74
2021/06/25 08:49:54;;;;;;;15.07;14.10;;;;;;;19.99;68.96;100947.41;5105381;27;20272;-74
2021/06/25 08:52:21;;;;;;;17.23;16.10;;;;;;;20.02;68.18;100979.91;5105462;27;20206;-73
2021/06/25 08:54:47;;;;;;;17.57;16.37;;;;;;;19.78;67.36;101047.34;5105088;27;20203;-74
2021/06/25 08:57:14;;;;;;;17.80;16.63;;;;;;;19.91;67.98;101005.22;5105249;27;20230;-73
2021/06/25 08:59:44;;;;;;;18.77;16.83;;;;;;;19.93;67.88;100992.75;5105101;27;20210;-73
2021/06/25 09:02:14;;;;;;;15.83;14.63;;;;;;;20.03;68.07;100981.63;5104679;27;20211;-74
2021/06/25 09:04:41;;;;;;;17.27;16.07;;;;;;;20.08;68.09;100972.56;5104987;27;20202;-75
2021/06/25 09:07:09;;;;;;;19.27;17.90;;;;;;;19.76;66.68;101046.56;5105595;27;20217;-75
2021/06/25 09:09:41;;;;;;;16.83;15.73;;;;;;;19.87;67.78;100993.06;5105694;27;20282;-73
2021/06/25 09:12:18;;;;;;;16.07;14.87;;;;;;;19.79;68.35;100977.53;5104764;27;20229;-74
2021/06/25 09:15:06;;;;;;;16.00;14.90;;;;;;;19.94;69.62;100899.94;5104608;27;20219;-73
2021/06/25 09:17:35;;;;;;;17.60;16.40;;;;;;;20.08;68.54;100946.97;5105051;27;20208;-73
2021/06/25 09:20:05;;;;;;;15.97;14.80;;;;;;;19.92;68.40;100983.97;5105086;27;20215;-74
2021/06/25 09:22:32;;;;;;;17.50;16.33;;;;;;;19.92;67.46;101009.59;5104241;27;20294;-74
2021/06/25 09:25:01;;;;;;;17.10;16.10;;;;;;;19.98;68.11;100978.34;5104185;27;20203;-74
2021/06/25 09:27:28;;;;;;;17.27;16.03;;;;;;;20.03;68.40;100960.41;5104271;27;20229;-73
2021/06/25 09:29:55;;;;;;;16.20;15.17;;;;;;;20.09;68.53;100951.31;5104776;27;20202;-74
2021/06/25 09:32:21;;;;;;;17.80;16.57;;;;;;;19.84;67.20;101021.44;5104850;27;20203;-73
2021/06/25 09:34:52;;;;;;;16.47;15.30;;;;;;;19.75;68.15;100999.81;5104075;27;20282;-73
2021/06/25 09:37:21;;;;;;;16.10;14.93;;;;;;;19.76;69.33;100920.28;5104083;27;20245;-73
2021/06/25 09:39:58;;;;;;;16.13;15.10;;;;;;;19.76;69.38;100906.16;5104127;27;20199;-74
2021/06/25 09:42:25;;;;;;;15.20;14.20;;;;;;;19.73;69.45;100923.06;5103898;27;20260;-73
2021/06/25 09:44:59;;;;;;;16.07;14.77;;;;;;;19.70;69.86;100904.66;5104536;27;20208;-74
2021/06/25 09:47:28;;;;;;;16.30;15.17;;;;;;;19.48;70.00;100915.41;5104049;28;20203;-72
2021/06/25 09:50:09;;;;;;;16.30;15.23;;;;;;;19.15;70.53;100884.38;5103586;27;20217;-73
2021/06/25 09:52:54;;;;;;;13.97;12.93;;;;;;;19.23;71.14;100849.59;5104175;27;20267;-72
2021/06/25 09:55:22;;;;;;;17.10;15.70;;;;;;;19.13;71.26;100857.13;5103434;27;20231;-73
2021/06/25 10:03:41;;;;;;;20.87;19.00;;;;;;;19.29;73.18;100772.53;5103309;27;20278;-74
2021/06/25 10:06:12;;;;;;;17.97;16.63;;;;;;;19.27;72.73;100774.41;5103553;28;20565;-73
2021/06/25 10:08:38;;;;;;;19.30;17.93;;;;;;;19.30;73.47;100758.34;5103889;27;20203;-74
2021/06/25 10:11:06;;;;;;;18.17;16.77;;;;;;;19.03;73.12;100779.13;5103788;27;20286;-72
2021/06/25 10:13:35;;;;;;;20.37;19.07;;;;;;;19.18;73.81;100751.03;5103500;27;20200;-72
2021/06/25 10:16:02;;;;;;;20.70;19.03;;;;;;;19.25;73.53;100765.69;5103527;27;20219;-74
2021/06/25 10:18:35;;;;;;;21.63;19.93;;;;;;;19.28;73.47;100764.66;5103138;28;20252;-74
2021/06/25 10:21:02;;;;;;;20.33;18.53;;;;;;;19.45;73.10;100786.69;5104126;28;20206;-73
2021/06/25 10:23:33;;;;;;;20.67;19.37;;;;;;;19.68;72.50;100815.59;5103162;28;20625;-73
2021/06/25 10:26:01;;;;;;;20.27;18.87;;;;;;;19.97;72.57;100796.44;5103891;28;20231;-73
2021/06/25 10:28:28;;;;;;;22.53;20.70;;;;;;;19.59;69.32;100952.84;5103351;28;20222;-73
2021/06/25 10:30:55;;;;;;;19.93;18.63;;;;;;;19.62;72.13;100814.09;5103078;27;20264;-73
2021/06/25 10:33:21;;;;;;;21.00;19.50;;;;;;;19.66;70.98;100836.84;5103513;28;20259;-73
2021/06/25 10:35:50;;;;;;;21.13;18.97;;;;;;;19.87;69.24;100927.69;5103382;28;20277;-74
2021/06/25 10:38:18;;;;;;;21.40;19.90;;;;;;;20.02;69.15;100936.66;5103284;28;20260;-74
2021/06/25 10:40:57;;;;;;;19.27;17.63;;;;;;;20.19;68.27;100981.72;5102930;28;20668;-73
2021/06/25 10:43:47;;;;;;;20.27;18.63;;;;;;;20.51;67.92;100988.97;5103173;28;20206;-74
2021/06/25 10:46:34;;;;;;;20.10;18.77;;;;;;;19.91;65.58;101095.31;5103427;28;20220;-73
2021/06/25 10:49:03;;;;;;;20.23;18.70;;;;;;;19.97;66.53;101039.38;5103719;28;20217;-74
2021/06/25 10:51:32;;;;;;;19.10;17.63;;;;;;;20.12;67.42;100995.34;5103517;28;20278;-72
2021/06/25 10:54:14;;;;;;;21.30;19.40;;;;;;;20.06;65.73;101056.59;5102543;28;20209;-74
2021/06/25 10:56:45;;;;;;;21.30;19.87;;;;;;;20.01;66.13;101039.16;5103973;28;20283;-74
2021/06/25 10:59:23;;;;;;;21.17;19.67;;;;;;;19.80;67.47;100981.88;5104671;28;20210;-74
2021/06/25 11:01:52;;;;;;;22.37;20.53;;;;;;;19.80;67.44;100972.19;5103179;28;20208;-73
2021/06/25 11:04:37;;;;;;;19.63;18.33;;;;;;;19.64;68.32;100939.38;5104453;28;20260;-73
2021/06/25 11:07:08;;;;;;;22.40;20.90;;;;;;;19.50;67.96;100965.66;5111922;27;20256;-73
2021/06/25 11:09:56;;;;;;;21.37;19.87;;;;;;;19.57;69.29;100916.78;5120147;27;20201;-73
2021/06/25 11:12:29;;;;;;;22.37;20.43;;;;;;;19.43;68.44;100955.38;5118789;27;20219;-74
2021/06/25 11:15:22;;;;;;;19.70;18.20;;;;;;;19.41;69.17;100925.47;5111483;27;20256;-73
2021/06/25 11:17:52;;;;;;;22.57;20.97;;;;;;;19.27;69.53;100888.22;5106790;27;20215;-73
2021/06/25 11:20:21;;;;;;;22.87;21.27;;;;;;;18.70;71.95;100810.66;5105272;27;20214;-74
2021/06/25 11:22:54;;;;;;;24.67;23.00;;;;;;;18.70;73.03;100765.69;5106098;27;20621;-73
2021/06/25 11:25:39;;;;;;;23.13;21.47;;;;;;;18.56;73.25;100748.69;5105979;27;20295;-74
2021/06/25 11:28:15;;;;;;;21.53;20.07;;;;;;;19.05;73.07;100745.50;5105849;27;20205;-75
2021/06/25 11:31:06;;;;;;;21.10;19.53;;;;;;;19.48;71.32;100828.03;5105584;28;20282;-74